Saint Charles, Michigan
Current Conditions -  °F | °C
As of 3:53 AM on Saturday 20 Dec 2014 (Local Time) from KMBS Reporting Station
Clear Clear  
Wind Chill: -6°   Ceiling: Unl
Heat Index: -6°   Visibility: 9mi
Dew Point: -8°   Wind: 3mph
Humidity: 85%   Direction: 280°W
Pressure: 30.29"   Gusts: NA
Location:  43.3°N, 84.14°W
Report Text: KMBS 200853Z 28003KT 9SM CLR M06/M08 A3029 RMK AO2 SLP268 I1000 I3000 T10611083 51003
Loading
Personal Weather Stations






























Interactive Weather Map New forecast layout! Learn more

10-Day Weather Forecast

Advertisements
Track Severe Weather on mobile